Time,TemperatureF,DewpointF,PressureIn,WindDirection,WindDirectionDegrees,WindSpeedMPH,WindSpeedGustMPH,Humidity,HourlyPrecipIn,Conditions,Clouds,dailyrainin,SolarRadiationWatts/m^2,SoftwareType,DateUTC
2013-11-11 00:04:00,43.4,29.6,30.19,NE,45,8.0,-999.0,58,0.00,,,0.00,0,Wunderground v.1.15,2013-11-11 05:04:00,
2013-11-11 00:09:00,43.4,29.6,30.19,NE,45,8.0,-999.0,58,0.00,,,0.00,0,Wunderground v.1.15,2013-11-11 05:09:00,
2013-11-11 00:14:00,43.4,29.6,30.19,NE,45,8.0,-999.0,58,0.00,,,0.00,0,Wunderground v.1.15,2013-11-11 05:14:00,
2013-11-11 00:19:00,43.4,29.6,30.19,NE,45,8.0,-999.0,58,0.00,,,0.00,0,Wunderground v.1.15,2013-11-11 05:19:00,
2013-11-11 00:24:00,43.4,29.6,30.19,NE,45,8.0,-999.0,58,0.00,,,0.00,0,Wunderground v.1.15,2013-11-11 05:24:00,
2013-11-11 00:29:00,43.4,29.6,30.19,NE,45,8.0,-999.0,58,0.00,,,0.00,0,Wunderground v.1.15,2013-11-11 05:29:00,
2013-11-11 00:34:00,43.4,29.6,30.19,NE,45,8.0,-999.0,58,0.00,,,0.00,0,Wunderground v.1.15,2013-11-11 05:34:00,
2013-11-11 00:39:00,43.4,29.6,30.19,NE,45,8.0,-999.0,58,0.00,,,0.00,0,Wunderground v.1.15,2013-11-11 05:39:00,
2013-11-11 00:44:00,43.4,29.6,30.19,NE,45,8.0,-999.0,58,0.00,,,0.00,0,Wunderground v.1.15,2013-11-11 05:44:00,
2013-11-11 00:49:00,43.0,29.2,30.20,NE,45,6.0,-999.0,58,0.00,,,0.00,0,Wunderground v.1.15,2013-11-11 05:49:00,
2013-11-11 00:54:00,43.0,29.2,30.20,NE,45,6.0,-999.0,58,0.00,,,0.00,0,Wunderground v.1.15,2013-11-11 05:54:00,
2013-11-11 00:59:00,43.0,29.2,30.20,NE,45,6.0,-999.0,58,0.00,,,0.00,0,Wunderground v.1.15,2013-11-11 05:59:00,
2013-11-11 01:04:00,43.0,29.2,30.20,NE,45,6.0,-999.0,58,0.00,,,0.00,0,Wunderground v.1.15,2013-11-11 06:04:00,
2013-11-11 01:09:00,43.0,29.2,30.20,NE,45,6.0,-999.0,58,0.00,,,0.00,0,Wunderground v.1.15,2013-11-11 06:09:00,
2013-11-11 01:14:00,43.0,29.2,30.20,NE,45,6.0,-999.0,58,0.00,,,0.00,0,Wunderground v.1.15,2013-11-11 06:14:00,
2013-11-11 01:19:00,43.2,29.4,30.22,NNE,23,5.0,-999.0,58,0.00,,,0.00,0,Wunderground v.1.15,2013-11-11 06:19:00,
2013-11-11 01:24:00,43.2,29.4,30.22,NNE,23,5.0,-999.0,58,0.00,,,0.00,0,Wunderground v.1.15,2013-11-11 06:24:00,
2013-11-11 01:29:00,43.2,29.4,30.22,NNE,23,5.0,-999.0,58,0.00,,,0.00,0,Wunderground v.1.15,2013-11-11 06:29:00,
2013-11-11 01:34:00,43.2,29.4,30.22,NNE,23,5.0,-999.0,58,0.00,,,0.00,0,Wunderground v.1.15,2013-11-11 06:34:00,
2013-11-11 01:39:00,43.2,29.4,30.22,NNE,23,5.0,-999.0,58,0.00,,,0.00,0,Wunderground v.1.15,2013-11-11 06:39:00,
2013-11-11 01:44:00,43.2,29.4,30.22,NNE,23,5.0,-999.0,58,0.00,,,0.00,0,Wunderground v.1.15,2013-11-11 06:44:00,
2013-11-11 01:49:00,42.9,30.0,30.23,NE,45,6.0,-999.0,60,0.00,,,0.00,0,Wunderground v.1.15,2013-11-11 06:49:00,
2013-11-11 01:54:00,42.9,30.0,30.23,NE,45,6.0,-999.0,60,0.00,,,0.00,0,Wunderground v.1.15,2013-11-11 06:54:00,
2013-11-11 01:59:00,42.9,30.0,30.23,NE,45,6.0,-999.0,60,0.00,,,0.00,0,Wunderground v.1.15,2013-11-11 06:59:00,
2013-11-11 02:04:00,42.9,30.0,30.23,NE,45,6.0,-999.0,60,0.00,,,0.00,0,Wunderground v.1.15,2013-11-11 07:04:00,
2013-11-11 02:09:00,42.9,30.0,30.23,NE,45,6.0,-999.0,60,0.00,,,0.00,0,Wunderground v.1.15,2013-11-11 07:09:00,
2013-11-11 02:14:00,42.9,30.0,30.23,NE,45,6.0,-999.0,60,0.00,,,0.00,0,Wunderground v.1.15,2013-11-11 07:14:00,
2013-11-11 02:19:00,42.5,30.0,30.24,NE,45,6.0,-999.0,61,0.00,,,0.00,0,Wunderground v.1.15,2013-11-11 07:19:00,
2013-11-11 02:24:00,42.5,30.0,30.24,NE,45,6.0,-999.0,61,0.00,,,0.00,0,Wunderground v.1.15,2013-11-11 07:24:00,
2013-11-11 02:29:00,42.5,30.0,30.24,NE,45,6.0,-999.0,61,0.00,,,0.00,0,Wunderground v.1.15,2013-11-11 07:29:00,
2013-11-11 02:34:00,42.5,30.0,30.24,NE,45,6.0,-999.0,61,0.00,,,0.00,0,Wunderground v.1.15,2013-11-11 07:34:00,
2013-11-11 02:39:00,42.5,30.0,30.24,NE,45,6.0,-999.0,61,0.00,,,0.00,0,Wunderground v.1.15,2013-11-11 07:39:00,
2013-11-11 02:44:00,42.5,30.0,30.24,NE,45,6.0,-999.0,61,0.00,,,0.00,0,Wunderground v.1.15,2013-11-11 07:44:00,
2013-11-11 02:49:00,42.2,30.1,30.24,NNE,23,5.0,-999.0,62,0.00,,,0.00,0,Wunderground v.1.15,2013-11-11 07:49:00,
2013-11-11 02:54:00,42.2,30.1,30.24,NNE,23,5.0,-999.0,62,0.00,,,0.00,0,Wunderground v.1.15,2013-11-11 07:54:00,
2013-11-11 02:59:00,42.2,30.1,30.24,NNE,23,5.0,-999.0,62,0.00,,,0.00,0,Wunderground v.1.15,2013-11-11 07:59:00,
2013-11-11 03:04:00,42.2,30.1,30.24,NNE,23,5.0,-999.0,62,0.00,,,0.00,0,Wunderground v.1.15,2013-11-11 08:04:00,
2013-11-11 03:09:00,42.2,30.1,30.24,NNE,23,5.0,-999.0,62,0.00,,,0.00,0,Wunderground v.1.15,2013-11-11 08:09:00,
2013-11-11 03:14:00,42.2,30.1,30.24,NNE,23,5.0,-999.0,62,0.00,,,0.00,0,Wunderground v.1.15,2013-11-11 08:14:00,
2013-11-11 03:19:00,41.1,29.8,30.23,NE,45,3.0,-999.0,64,0.00,,,0.00,0,Wunderground v.1.15,2013-11-11 08:19:00,
2013-11-11 03:24:00,41.1,29.8,30.23,NE,45,3.0,-999.0,64,0.00,,,0.00,0,Wunderground v.1.15,2013-11-11 08:24:00,
2013-11-11 03:29:00,41.1,29.8,30.23,NE,45,3.0,-999.0,64,0.00,,,0.00,0,Wunderground v.1.15,2013-11-11 08:29:00,
2013-11-11 03:34:00,41.1,29.8,30.23,NE,45,3.0,-999.0,64,0.00,,,0.00,0,Wunderground v.1.15,2013-11-11 08:34:00,
2013-11-11 03:39:00,41.1,29.8,30.23,NE,45,3.0,-999.0,64,0.00,,,0.00,0,Wunderground v.1.15,2013-11-11 08:39:00,
2013-11-11 03:44:00,41.1,29.8,30.23,NE,45,3.0,-999.0,64,0.00,,,0.00,0,Wunderground v.1.15,2013-11-11 08:44:00,
2013-11-11 03:49:00,39.8,30.1,30.24,NE,45,2.0,-999.0,68,0.00,,,0.00,0,Wunderground v.1.15,2013-11-11 08:49:00,
2013-11-11 03:54:00,39.8,30.1,30.24,NE,45,2.0,-999.0,68,0.00,,,0.00,0,Wunderground v.1.15,2013-11-11 08:54:00,
2013-11-11 03:59:00,39.8,30.1,30.24,NE,45,2.0,-999.0,68,0.00,,,0.00,0,Wunderground v.1.15,2013-11-11 08:59:00,
2013-11-11 04:04:00,39.8,30.1,30.24,NE,45,2.0,-999.0,68,0.00,,,0.00,0,Wunderground v.1.15,2013-11-11 09:04:00,
2013-11-11 04:09:00,39.8,30.1,30.24,NE,45,2.0,-999.0,68,0.00,,,0.00,0,Wunderground v.1.15,2013-11-11 09:09:00,
2013-11-11 04:14:00,39.8,30.1,30.24,NE,45,2.0,-999.0,68,0.00,,,0.00,0,Wunderground v.1.15,2013-11-11 09:14:00,
2013-11-11 04:19:00,35.8,28.6,30.25,West,270,0.0,-999.0,75,0.00,,,0.00,0,Wunderground v.1.15,2013-11-11 09:19:00,
2013-11-11 04:24:00,35.8,28.6,30.25,West,270,0.0,-999.0,75,0.00,,,0.00,0,Wunderground v.1.15,2013-11-11 09:24:00,
2013-11-11 04:29:00,35.8,28.6,30.25,West,270,0.0,-999.0,75,0.00,,,0.00,0,Wunderground v.1.15,2013-11-11 09:29:00,
2013-11-11 04:34:00,35.8,28.6,30.25,West,270,0.0,-999.0,75,0.00,,,0.00,0,Wunderground v.1.15,2013-11-11 09:34:00,
2013-11-11 04:39:00,35.8,28.6,30.25,West,270,0.0,-999.0,75,0.00,,,0.00,0,Wunderground v.1.15,2013-11-11 09:39:00,
2013-11-11 04:44:00,35.8,28.6,30.25,West,270,0.0,-999.0,75,0.00,,,0.00,0,Wunderground v.1.15,2013-11-11 09:44:00,
2013-11-11 04:49:00,32.5,27.6,30.24,WNW,293,0.0,-999.0,82,0.00,,,0.00,0,Wunderground v.1.15,2013-11-11 09:49:00,
2013-11-11 04:54:00,32.5,27.6,30.24,WNW,293,0.0,-999.0,82,0.00,,,0.00,0,Wunderground v.1.15,2013-11-11 09:54:00,
2013-11-11 04:59:00,32.5,27.6,30.24,WNW,293,0.0,-999.0,82,0.00,,,0.00,0,Wunderground v.1.15,2013-11-11 09:59:00,
2013-11-11 05:04:00,32.5,27.6,30.24,WNW,293,0.0,-999.0,82,0.00,,,0.00,0,Wunderground v.1.15,2013-11-11 10:04:00,
2013-11-11 05:09:00,32.5,27.6,30.24,WNW,293,0.0,-999.0,82,0.00,,,0.00,0,Wunderground v.1.15,2013-11-11 10:09:00,
2013-11-11 05:14:00,32.5,27.6,30.24,WNW,293,0.0,-999.0,82,0.00,,,0.00,0,Wunderground v.1.15,2013-11-11 10:14:00,
2013-11-11 05:19:00,33.2,28.3,30.25,WNW,293,0.0,-999.0,82,0.00,,,0.00,0,Wunderground v.1.15,2013-11-11 10:19:00,
2013-11-11 05:24:00,33.2,28.3,30.25,WNW,293,0.0,-999.0,82,0.00,,,0.00,0,Wunderground v.1.15,2013-11-11 10:24:00,
2013-11-11 05:29:00,33.2,28.3,30.25,WNW,293,0.0,-999.0,82,0.00,,,0.00,0,Wunderground v.1.15,2013-11-11 10:29:00,
2013-11-11 05:34:00,33.2,28.3,30.25,WNW,293,0.0,-999.0,82,0.00,,,0.00,0,Wunderground v.1.15,2013-11-11 10:34:00,
2013-11-11 05:39:00,33.2,28.3,30.25,WNW,293,0.0,-999.0,82,0.00,,,0.00,0,Wunderground v.1.15,2013-11-11 10:39:00,
2013-11-11 05:44:00,33.2,28.3,30.25,WNW,293,0.0,-999.0,82,0.00,,,0.00,0,Wunderground v.1.15,2013-11-11 10:44:00,
2013-11-11 05:49:00,32.5,27.9,30.25,North,0,0.0,-999.0,83,0.00,,,0.00,0,Wunderground v.1.15,2013-11-11 10:49:00,
2013-11-11 05:54:00,32.5,27.9,30.25,North,0,0.0,-999.0,83,0.00,,,0.00,0,Wunderground v.1.15,2013-11-11 10:54:00,
2013-11-11 05:59:00,32.5,27.9,30.25,North,0,0.0,-999.0,83,0.00,,,0.00,0,Wunderground v.1.15,2013-11-11 10:59:00,
2013-11-11 07:07:00,31.5,28.1,30.28,North,355,0.0,0.0,87,0.00,,,0.00,28,Wunderground v.1.15,2013-11-11 12:07:00,
2013-11-11 07:08:00,31.5,28.1,30.28,North,355,0.0,0.0,87,0.00,,,0.00,30,Wunderground v.1.15,2013-11-11 12:08:00,
2013-11-11 07:11:00,31.6,28.5,30.28,North,355,0.0,0.0,88,0.00,,,0.00,33,Wunderground v.1.15,2013-11-11 12:11:00,
2013-11-11 07:16:00,31.7,28.6,30.27,North,355,0.0,0.0,88,0.00,,,0.00,37,Wunderground v.1.15,2013-11-11 12:16:00,
2013-11-11 07:21:00,31.9,28.5,30.28,North,355,0.0,0.0,87,0.00,,,0.00,42,Wunderground v.1.15,2013-11-11 12:21:00,
2013-11-11 07:26:00,32.1,28.7,30.28,North,355,0.0,0.0,87,0.00,,,0.00,72,Wunderground v.1.15,2013-11-11 12:26:00,
2013-11-11 07:31:00,32.5,28.8,30.27,North,355,0.0,0.0,86,0.00,,,0.00,95,Wunderground v.1.15,2013-11-11 12:31:00,
2013-11-11 07:37:00,33.3,29.6,30.27,North,355,0.0,0.0,86,0.00,,,0.00,104,Wunderground v.1.15,2013-11-11 12:37:00,
2013-11-11 07:42:00,33.9,30.2,30.28,North,355,0.0,0.0,86,0.00,,,0.00,132,Wunderground v.1.15,2013-11-11 12:42:00,
2013-11-11 07:47:00,35.0,30.7,30.28,NW,311,0.0,2.0,84,0.00,,,0.00,156,Wunderground v.1.15,2013-11-11 12:47:00,
2013-11-11 07:52:00,36.3,31.9,30.28,NW,311,0.0,0.0,84,0.00,,,0.00,174,Wunderground v.1.15,2013-11-11 12:52:00,
2013-11-11 07:57:00,37.9,32.9,30.28,NW,311,0.0,0.0,82,0.00,,,0.00,190,Wunderground v.1.15,2013-11-11 12:57:00,
2013-11-11 08:02:00,39.2,32.6,30.28,NW,311,0.0,1.0,77,0.00,,,0.00,206,Wunderground v.1.15,2013-11-11 13:02:00,
2013-11-11 08:07:00,40.6,31.9,30.28,WNW,295,2.0,6.0,71,0.00,,,0.00,227,Wunderground v.1.15,2013-11-11 13:07:00,
2013-11-11 08:12:00,41.9,32.5,30.28,NNE,28,6.0,8.0,69,0.00,,,0.00,244,Wunderground v.1.15,2013-11-11 13:12:00,
2013-11-11 08:17:00,42.8,33.0,30.27,NNE,13,3.0,9.0,68,0.00,,,0.00,225,Wunderground v.1.15,2013-11-11 13:17:00,
2013-11-11 08:22:00,43.2,32.6,30.27,North,360,9.0,10.0,66,0.00,,,0.00,260,Wunderground v.1.15,2013-11-11 13:22:00,
2013-11-11 08:27:00,43.6,33.0,30.27,NNW,337,7.0,11.0,66,0.00,,,0.00,295,Wunderground v.1.15,2013-11-11 13:27:00,
2013-11-11 08:32:00,43.8,32.4,30.27,North,355,3.0,9.0,64,0.00,,,0.00,239,Wunderground v.1.15,2013-11-11 13:32:00,
2013-11-11 08:37:00,43.9,33.3,30.27,North,360,7.0,9.0,66,0.00,,,0.00,241,Wunderground v.1.15,2013-11-11 13:37:00,
2013-11-11 08:42:00,44.1,33.5,30.27,North,11,5.0,7.0,66,0.00,,,0.00,269,Wunderground v.1.15,2013-11-11 13:42:00,
2013-11-11 08:47:00,44.3,32.9,30.27,NNE,27,5.0,8.0,64,0.00,,,0.00,232,Wunderground v.1.15,2013-11-11 13:47:00,
2013-11-11 08:52:00,44.4,33.4,30.27,North,9,2.0,8.0,65,0.00,,,0.00,292,Wunderground v.1.15,2013-11-11 13:52:00,
2013-11-11 08:57:00,44.5,33.5,30.27,North,11,2.0,8.0,65,0.00,,,0.00,285,Wunderground v.1.15,2013-11-11 13:57:00,
2013-11-11 09:02:00,44.7,33.6,30.27,North,5,7.0,10.0,65,0.00,,,0.00,350,Wunderground v.1.15,2013-11-11 14:02:00,
2013-11-11 09:07:00,44.8,34.1,30.27,NNW,344,6.0,10.0,66,0.00,,,0.00,394,Wunderground v.1.15,2013-11-11 14:07:00,
2013-11-11 09:12:00,45.2,33.7,30.27,NNW,345,3.0,8.0,64,0.00,,,0.00,322,Wunderground v.1.15,2013-11-11 14:12:00,
2013-11-11 09:17:00,45.3,34.2,30.27,NE,54,6.0,8.0,65,0.00,,,0.00,418,Wunderground v.1.15,2013-11-11 14:17:00,
2013-11-11 09:22:00,45.8,34.3,30.27,NNE,17,9.0,10.0,64,0.00,,,0.00,450,Wunderground v.1.15,2013-11-11 14:22:00,
2013-11-11 09:27:00,46.0,35.3,30.27,NNE,13,4.0,10.0,66,0.00,,,0.00,406,Wunderground v.1.15,2013-11-11 14:27:00,
2013-11-11 09:32:00,46.5,35.0,30.27,North,355,7.0,8.0,64,0.00,,,0.00,345,Wunderground v.1.15,2013-11-11 14:32:00,
2013-11-11 09:37:00,46.8,35.3,30.27,East,93,10.0,11.0,64,0.00,,,0.00,506,Wunderground v.1.15,2013-11-11 14:37:00,
2013-11-11 09:42:00,47.3,34.1,30.27,ENE,78,7.0,11.0,60,0.00,,,0.00,513,Wunderground v.1.15,2013-11-11 14:42:00,
2013-11-11 09:47:00,47.1,33.9,30.26,NE,56,3.0,11.0,60,0.00,,,0.00,374,Wunderground v.1.15,2013-11-11 14:47:00,
2013-11-11 09:52:00,47.4,34.6,30.26,NNE,32,4.0,8.0,61,0.00,,,0.00,483,Wunderground v.1.15,2013-11-11 14:52:00,
2013-11-11 09:58:00,47.5,35.1,30.26,NNE,32,8.0,13.0,62,0.00,,,0.00,471,Wunderground v.1.15,2013-11-11 14:58:00,
2013-11-11 10:03:00,47.7,35.3,30.26,NNE,12,9.0,13.0,62,0.00,,,0.00,487,Wunderground v.1.15,2013-11-11 15:03:00,
2013-11-11 10:08:00,47.3,35.3,30.26,NNW,343,5.0,13.0,63,0.00,,,0.00,299,Wunderground v.1.15,2013-11-11 15:08:00,
2013-11-11 10:13:00,47.3,34.1,30.26,NNE,12,7.0,10.0,60,0.00,,,0.00,292,Wunderground v.1.15,2013-11-11 15:13:00,
2013-11-11 10:18:00,47.2,34.4,30.25,NNE,20,7.0,10.0,61,0.00,,,0.00,251,Wunderground v.1.15,2013-11-11 15:18:00,
2013-11-11 10:23:00,47.2,34.0,30.25,NNW,327,6.0,10.0,60,0.00,,,0.00,308,Wunderground v.1.15,2013-11-11 15:23:00,
2013-11-11 10:28:00,47.2,34.4,30.25,NNW,332,10.0,12.0,61,0.00,,,0.00,313,Wunderground v.1.15,2013-11-11 15:28:00,
2013-11-11 10:33:00,47.1,33.9,30.25,NNW,348,9.0,11.0,60,0.00,,,0.00,353,Wunderground v.1.15,2013-11-11 15:33:00,
2013-11-11 10:38:00,47.1,34.7,30.24,NE,34,7.0,11.0,62,0.00,,,0.00,367,Wunderground v.1.15,2013-11-11 15:38:00,
2013-11-11 10:43:00,47.2,34.4,30.25,NNW,331,6.0,10.0,61,0.00,,,0.00,330,Wunderground v.1.15,2013-11-11 15:43:00,
2013-11-11 10:48:00,47.5,34.3,30.25,NNW,333,1.0,11.0,60,0.00,,,0.00,362,Wunderground v.1.15,2013-11-11 15:48:00,
2013-11-11 10:53:00,47.9,34.7,30.25,North,355,4.0,6.0,60,0.00,,,0.00,464,Wunderground v.1.15,2013-11-11 15:53:00,
2013-11-11 10:58:00,47.8,34.2,30.25,NW,307,8.0,13.0,59,0.00,,,0.00,290,Wunderground v.1.15,2013-11-11 15:58:00,
2013-11-11 11:03:00,47.6,34.0,30.25,North,349,12.0,12.0,59,0.00,,,0.00,311,Wunderground v.1.15,2013-11-11 16:03:00,
2013-11-11 11:08:00,47.6,34.4,30.24,North,5,6.0,12.0,60,0.00,,,0.00,313,Wunderground v.1.15,2013-11-11 16:08:00,
2013-11-11 11:13:00,47.8,35.4,30.24,NNE,32,7.0,9.0,62,0.00,,,0.00,338,Wunderground v.1.15,2013-11-11 16:13:00,
2013-11-11 11:18:00,48.0,36.0,30.24,NNW,344,5.0,10.0,63,0.00,,,0.00,323,Wunderground v.1.15,2013-11-11 16:18:00,
2013-11-11 11:23:00,48.0,35.6,30.24,NW,323,10.0,10.0,62,0.00,,,0.00,341,Wunderground v.1.15,2013-11-11 16:23:00,
2013-11-11 11:28:00,48.0,35.2,30.24,NNW,327,7.0,11.0,61,0.00,,,0.00,366,Wunderground v.1.15,2013-11-11 16:28:00,
2013-11-11 11:33:00,47.9,35.1,30.23,NNE,25,4.0,11.0,61,0.00,,,0.00,297,Wunderground v.1.15,2013-11-11 16:33:00,
2013-11-11 11:38:00,47.8,35.4,30.23,WNW,300,6.0,11.0,62,0.00,,,0.00,287,Wunderground v.1.15,2013-11-11 16:38:00,
2013-11-11 11:43:00,47.7,35.3,30.23,NNE,25,4.0,9.0,62,0.00,,,0.00,285,Wunderground v.1.15,2013-11-11 16:43:00,
2013-11-11 11:48:00,47.6,35.2,30.23,North,349,8.0,11.0,62,0.00,,,0.00,241,Wunderground v.1.15,2013-11-11 16:48:00,
2013-11-11 11:53:00,47.5,35.5,30.22,West,274,4.0,8.0,63,0.00,,,0.00,285,Wunderground v.1.15,2013-11-11 16:53:00,
2013-11-11 11:59:00,47.6,35.2,30.22,NNW,331,6.0,12.0,62,0.00,,,0.00,265,Wunderground v.1.15,2013-11-11 16:59:00,
2013-11-11 12:03:00,47.7,35.7,30.22,WNW,294,5.0,10.0,63,0.00,,,0.00,294,Wunderground v.1.15,2013-11-11 17:03:00,
2013-11-11 12:09:00,47.7,34.5,30.22,NNW,340,2.0,11.0,60,0.00,,,0.00,274,Wunderground v.1.15,2013-11-11 17:09:00,
2013-11-11 12:14:00,47.7,34.9,30.22,NW,325,7.0,13.0,61,0.00,,,0.00,264,Wunderground v.1.15,2013-11-11 17:14:00,
2013-11-11 12:19:00,47.6,34.8,30.22,NNW,327,5.0,13.0,61,0.00,,,0.00,260,Wunderground v.1.15,2013-11-11 17:19:00,
2013-11-11 12:24:00,47.5,34.3,30.21,NNW,342,6.0,12.0,60,0.00,,,0.00,264,Wunderground v.1.15,2013-11-11 17:24:00,
2013-11-11 12:29:00,47.5,34.7,30.21,NNW,340,10.0,13.0,61,0.00,,,0.00,251,Wunderground v.1.15,2013-11-11 17:29:00,
2013-11-11 12:34:00,47.5,34.3,30.21,North,360,6.0,12.0,60,0.00,,,0.00,274,Wunderground v.1.15,2013-11-11 17:34:00,
2013-11-11 12:39:00,47.8,34.6,30.20,North,360,10.0,12.0,60,0.00,,,0.00,279,Wunderground v.1.15,2013-11-11 17:39:00,
2013-11-11 12:51:00,48.3,35.0,30.19,NNW,329,10.0,10.0,60,0.00,,,0.00,295,Wunderground v.1.15,2013-11-11 17:51:00,
2013-11-11 12:56:00,48.4,35.1,30.19,North,355,8.0,12.0,60,0.00,,,0.00,316,Wunderground v.1.15,2013-11-11 17:56:00,
2013-11-11 13:01:00,48.9,36.4,30.19,NNW,337,6.0,6.0,62,0.00,,,0.00,325,Wunderground v.1.15,2013-11-11 18:01:00,
2013-11-11 13:06:00,49.1,35.8,30.19,NNW,337,10.0,11.0,60,0.00,,,0.00,316,Wunderground v.1.15,2013-11-11 18:06:00,
2013-11-11 13:11:00,49.1,34.9,30.18,NNW,330,9.0,13.0,58,0.00,,,0.00,334,Wunderground v.1.15,2013-11-11 18:11:00,
2013-11-11 13:16:00,49.4,34.8,30.18,NNW,342,5.0,15.0,57,0.00,,,0.00,454,Wunderground v.1.15,2013-11-11 18:16:00,
2013-11-11 13:21:00,50.2,34.6,30.17,NNW,332,11.0,16.0,55,0.00,,,0.00,496,Wunderground v.1.15,2013-11-11 18:21:00,
2013-11-11 13:26:00,50.5,35.4,30.17,NW,319,6.0,16.0,56,0.00,,,0.00,329,Wunderground v.1.15,2013-11-11 18:26:00,
2013-11-11 13:31:00,50.3,34.7,30.17,NW,320,9.0,10.0,55,0.00,,,0.00,362,Wunderground v.1.15,2013-11-11 18:31:00,
2013-11-11 13:36:00,50.2,34.2,30.16,NNW,337,6.0,18.0,54,0.00,,,0.00,568,Wunderground v.1.15,2013-11-11 18:36:00,
2013-11-11 13:41:00,50.7,35.6,30.16,NNW,340,4.0,12.0,56,0.00,,,0.00,570,Wunderground v.1.15,2013-11-11 18:41:00,
2013-11-11 13:46:00,51.6,34.5,30.15,NW,319,9.0,13.0,52,0.00,,,0.00,545,Wunderground v.1.15,2013-11-11 18:46:00,
2013-11-11 13:51:00,50.8,34.3,30.15,NW,307,7.0,14.0,53,0.00,,,0.00,385,Wunderground v.1.15,2013-11-11 18:51:00,
2013-11-11 13:56:00,50.1,35.0,30.15,NW,326,10.0,14.0,56,0.00,,,0.00,264,Wunderground v.1.15,2013-11-11 18:56:00,
2013-11-11 14:02:00,50.0,34.9,30.15,North,5,7.0,8.0,56,0.00,,,0.00,234,Wunderground v.1.15,2013-11-11 19:02:00,
2013-11-11 14:07:00,50.0,34.9,30.15,NNW,342,10.0,13.0,56,0.00,,,0.00,211,Wunderground v.1.15,2013-11-11 19:07:00,
2013-11-11 14:12:00,49.9,34.8,30.15,NNW,338,6.0,11.0,56,0.00,,,0.00,178,Wunderground v.1.15,2013-11-11 19:12:00,
2013-11-11 14:17:00,50.0,34.0,30.14,WNW,282,7.0,12.0,54,0.00,,,0.00,139,Wunderground v.1.15,2013-11-11 19:17:00,
2013-11-11 14:22:00,49.9,33.4,30.14,WNW,290,5.0,11.0,53,0.00,,,0.00,134,Wunderground v.1.15,2013-11-11 19:22:00,
2013-11-11 14:27:00,49.9,33.4,30.14,NNW,329,7.0,12.0,53,0.00,,,0.00,142,Wunderground v.1.15,2013-11-11 19:27:00,
2013-11-11 14:32:00,49.9,33.9,30.13,NW,304,5.0,10.0,54,0.00,,,0.00,156,Wunderground v.1.15,2013-11-11 19:32:00,
2013-11-11 14:37:00,50.0,34.0,30.13,NNW,348,9.0,15.0,54,0.00,,,0.00,139,Wunderground v.1.15,2013-11-11 19:37:00,
2013-11-11 14:42:00,50.0,33.5,30.13,North,350,4.0,12.0,53,0.00,,,0.00,139,Wunderground v.1.15,2013-11-11 19:42:00,
2013-11-11 14:47:00,50.1,33.6,30.13,NW,322,8.0,14.0,53,0.00,,,0.00,134,Wunderground v.1.15,2013-11-11 19:47:00,
2013-11-11 14:52:00,50.1,34.1,30.13,NNW,340,9.0,9.0,54,0.00,,,0.00,120,Wunderground v.1.15,2013-11-11 19:52:00,
2013-11-11 14:57:00,50.1,34.1,30.13,WNW,301,6.0,10.0,54,0.00,,,0.00,105,Wunderground v.1.15,2013-11-11 19:57:00,
2013-11-11 15:02:00,50.1,34.1,30.13,NW,311,4.0,9.0,54,0.00,,,0.00,91,Wunderground v.1.15,2013-11-11 20:02:00,
2013-11-11 15:07:00,50.1,34.5,30.13,NW,323,4.0,9.0,55,0.00,,,0.00,86,Wunderground v.1.15,2013-11-11 20:07:00,
2013-11-11 15:12:00,50.2,34.6,30.13,NNW,343,6.0,6.0,55,0.00,,,0.00,88,Wunderground v.1.15,2013-11-11 20:12:00,
2013-11-11 15:17:00,50.3,34.3,30.13,NW,319,7.0,13.0,54,0.00,,,0.00,79,Wunderground v.1.15,2013-11-11 20:17:00,
2013-11-11 15:22:00,50.4,33.9,30.12,NNW,342,4.0,9.0,53,0.00,,,0.00,69,Wunderground v.1.15,2013-11-11 20:22:00,
2013-11-11 15:27:00,50.5,34.0,30.13,NNW,327,4.0,9.0,53,0.00,,,0.00,60,Wunderground v.1.15,2013-11-11 20:27:00,
2013-11-11 15:32:00,50.6,33.6,30.13,NNW,331,5.0,10.0,52,0.00,,,0.00,54,Wunderground v.1.15,2013-11-11 20:32:00,
2013-11-11 15:37:00,50.6,34.6,30.13,NNW,328,6.0,10.0,54,0.00,,,0.00,46,Wunderground v.1.15,2013-11-11 20:37:00,
2013-11-11 15:42:00,50.6,34.1,30.12,NW,309,2.0,7.0,53,0.00,,,0.00,40,Wunderground v.1.15,2013-11-11 20:42:00,
2013-11-11 15:47:00,50.6,33.6,30.12,WNW,302,4.0,7.0,52,0.00,,,0.00,37,Wunderground v.1.15,2013-11-11 20:47:00,
2013-11-11 15:52:00,50.5,34.0,30.12,WNW,294,6.0,8.0,53,0.00,,,0.00,26,Wunderground v.1.15,2013-11-11 20:52:00,
2013-11-11 15:57:00,50.5,33.0,30.12,NW,319,3.0,12.0,51,0.00,,,0.00,21,Wunderground v.1.15,2013-11-11 20:57:00,
2013-11-11 16:02:00,50.5,33.0,30.12,NW,309,8.0,10.0,51,0.00,,,0.00,16,Wunderground v.1.15,2013-11-11 21:02:00,
2013-11-11 16:07:00,50.4,32.9,30.12,NW,316,4.0,10.0,51,0.00,,,0.00,14,Wunderground v.1.15,2013-11-11 21:07:00,
2013-11-11 16:12:00,50.4,32.9,30.12,WNW,302,6.0,8.0,51,0.00,,,0.00,14,Wunderground v.1.15,2013-11-11 21:12:00,
2013-11-11 16:17:00,50.3,33.3,30.12,NW,307,3.0,8.0,52,0.00,,,0.00,12,Wunderground v.1.15,2013-11-11 21:17:00,
2013-11-11 16:22:00,50.1,33.1,30.11,West,278,5.0,6.0,52,0.00,,,0.00,9,Wunderground v.1.15,2013-11-11 21:22:00,
2013-11-11 16:28:00,50.0,33.5,30.12,NW,321,3.0,9.0,53,0.00,,,0.00,7,Wunderground v.1.15,2013-11-11 21:28:00,
2013-11-11 16:33:00,50.0,33.1,30.12,WNW,299,0.0,7.0,52,0.00,,,0.00,5,Wunderground v.1.15,2013-11-11 21:33:00,
2013-11-11 16:38:00,49.8,33.3,30.11,NNW,332,3.0,8.0,53,0.00,,,0.00,0,Wunderground v.1.15,2013-11-11 21:38:00,
2013-11-11 16:43:00,49.8,32.4,30.11,NW,323,5.0,9.0,51,0.00,,,0.00,0,Wunderground v.1.15,2013-11-11 21:43:00,
2013-11-11 16:48:00,49.8,32.4,30.10,WNW,296,5.0,9.0,51,0.00,,,0.00,0,Wunderground v.1.15,2013-11-11 21:48:00,
2013-11-11 16:53:00,49.8,32.4,30.10,WNW,300,4.0,9.0,51,0.00,,,0.00,0,Wunderground v.1.15,2013-11-11 21:53:00,
2013-11-11 16:58:00,49.7,32.8,30.09,West,265,6.0,9.0,52,0.00,,,0.00,0,Wunderground v.1.15,2013-11-11 21:58:00,
2013-11-11 17:03:00,49.6,33.2,30.09,WSW,252,4.0,7.0,53,0.00,,,0.00,0,Wunderground v.1.15,2013-11-11 22:03:00,
2013-11-11 17:08:00,49.5,33.1,30.09,WSW,258,2.0,9.0,53,0.00,,,0.00,0,Wunderground v.1.15,2013-11-11 22:08:00,
2013-11-11 17:13:00,49.4,33.0,30.10,WNW,286,10.0,11.0,53,0.00,,,0.00,0,Wunderground v.1.15,2013-11-11 22:13:00,
2013-11-11 17:18:00,49.4,33.0,30.10,NW,307,4.0,12.0,53,0.00,,,0.00,0,Wunderground v.1.15,2013-11-11 22:18:00,
2013-11-11 17:23:00,49.4,33.0,30.09,NW,317,6.0,13.0,53,0.00,,,0.00,0,Wunderground v.1.15,2013-11-11 22:23:00,
2013-11-11 17:28:00,49.3,33.3,30.09,NW,315,3.0,13.0,54,0.00,,,0.00,0,Wunderground v.1.15,2013-11-11 22:28:00,
2013-11-11 17:33:00,49.3,33.3,30.09,WNW,286,12.0,12.0,54,0.00,,,0.00,0,Wunderground v.1.15,2013-11-11 22:33:00,
2013-11-11 17:38:00,49.2,32.8,30.09,NW,316,3.0,12.0,53,0.00,,,0.00,0,Wunderground v.1.15,2013-11-11 22:38:00,
2013-11-11 17:43:00,49.2,32.8,30.09,NW,306,5.0,11.0,53,0.00,,,0.00,0,Wunderground v.1.15,2013-11-11 22:43:00,
2013-11-11 17:48:00,49.2,32.8,30.09,West,263,8.0,11.0,53,0.00,,,0.00,0,Wunderground v.1.15,2013-11-11 22:48:00,
2013-11-11 17:53:00,49.2,33.3,30.09,WNW,297,7.0,12.0,54,0.00,,,0.00,0,Wunderground v.1.15,2013-11-11 22:53:00,
2013-11-11 17:58:00,49.2,33.3,30.09,WNW,302,4.0,13.0,54,0.00,,,0.00,0,Wunderground v.1.15,2013-11-11 22:58:00,
2013-11-11 18:03:00,49.1,33.2,30.09,West,276,5.0,8.0,54,0.00,,,0.00,0,Wunderground v.1.15,2013-11-11 23:03:00,
2013-11-11 18:08:00,49.0,33.1,30.08,WNW,285,3.0,8.0,54,0.00,,,0.00,0,Wunderground v.1.15,2013-11-11 23:08:00,
2013-11-11 18:13:00,48.9,33.0,30.08,SW,233,1.0,10.0,54,0.00,,,0.00,0,Wunderground v.1.15,2013-11-11 23:13:00,
2013-11-11 18:18:00,48.8,33.3,30.08,NW,315,4.0,10.0,55,0.00,,,0.00,0,Wunderground v.1.15,2013-11-11 23:18:00,
2013-11-11 18:23:00,48.8,33.8,30.08,West,275,3.0,13.0,56,0.00,,,0.00,0,Wunderground v.1.15,2013-11-11 23:23:00,
2013-11-11 18:29:00,48.8,34.2,30.08,WNW,288,7.0,13.0,57,0.00,,,0.00,0,Wunderground v.1.15,2013-11-11 23:29:00,
2013-11-11 18:34:00,48.8,34.2,30.07,NW,319,3.0,10.0,57,0.00,,,0.00,0,Wunderground v.1.15,2013-11-11 23:34:00,
2013-11-11 18:39:00,48.8,34.2,30.07,NW,317,0.0,10.0,57,0.00,,,0.00,0,Wunderground v.1.15,2013-11-11 23:39:00,
2013-11-11 18:44:00,48.7,34.6,30.07,NNW,334,2.0,9.0,58,0.00,,,0.00,0,Wunderground v.1.15,2013-11-11 23:44:00,
2013-11-11 18:49:00,48.7,34.6,30.07,West,263,3.0,10.0,58,0.00,,,0.00,0,Wunderground v.1.15,2013-11-11 23:49:00,
2013-11-11 18:54:00,48.6,34.9,30.07,WNW,289,5.0,11.0,59,0.00,,,0.00,0,Wunderground v.1.15,2013-11-11 23:54:00,
2013-11-11 18:59:00,48.4,35.1,30.07,WNW,297,4.0,12.0,60,0.00,,,0.00,0,Wunderground v.1.15,2013-11-11 23:59:00,
2013-11-11 19:04:00,48.3,35.0,30.06,WNW,296,4.0,9.0,60,0.00,,,0.00,0,Wunderground v.1.15,2013-11-12 00:04:00,
2013-11-11 19:09:00,48.1,35.3,30.06,NW,326,7.0,11.0,61,0.00,,,0.00,0,Wunderground v.1.15,2013-11-12 00:09:00,
2013-11-11 19:14:00,48.2,35.8,30.06,NNW,331,6.0,13.0,62,0.00,,,0.00,0,Wunderground v.1.15,2013-11-12 00:14:00,
2013-11-11 19:19:00,48.1,35.7,30.06,WNW,293,7.0,13.0,62,0.00,,,0.00,0,Wunderground v.1.15,2013-11-12 00:19:00,
2013-11-11 19:24:00,48.2,35.8,30.06,WNW,288,3.0,10.0,62,0.00,,,0.00,0,Wunderground v.1.15,2013-11-12 00:24:00,
2013-11-11 19:29:00,48.2,35.8,30.06,NW,307,3.0,13.0,62,0.00,,,0.00,0,Wunderground v.1.15,2013-11-12 00:29:00,
2013-11-11 19:34:00,48.1,35.7,30.06,NNW,333,5.0,13.0,62,0.00,,,0.00,0,Wunderground v.1.15,2013-11-12 00:34:00,
2013-11-11 19:39:00,47.9,35.9,30.06,WNW,300,6.0,13.0,63,0.00,,,0.00,0,Wunderground v.1.15,2013-11-12 00:39:00,
2013-11-11 19:44:00,47.8,36.2,30.05,NW,306,2.0,13.0,64,0.00,,,0.00,0,Wunderground v.1.15,2013-11-12 00:44:00,
2013-11-11 19:49:00,47.9,36.3,30.05,NW,309,5.0,13.0,64,0.00,,,0.00,0,Wunderground v.1.15,2013-11-12 00:49:00,
2013-11-11 19:54:00,47.9,36.3,30.05,WNW,302,6.0,8.0,64,0.00,,,0.00,0,Wunderground v.1.15,2013-11-12 00:54:00,
2013-11-11 19:59:00,47.9,36.3,30.05,WNW,290,3.0,5.0,64,0.00,,,0.00,0,Wunderground v.1.15,2013-11-12 00:59:00,
2013-11-11 20:04:00,47.8,36.6,30.05,NW,323,3.0,9.0,65,0.00,,,0.00,0,Wunderground v.1.15,2013-11-12 01:04:00,
2013-11-11 20:09:00,47.7,36.5,30.05,WNW,297,7.0,7.0,65,0.00,,,0.00,0,Wunderground v.1.15,2013-11-12 01:09:00,
2013-11-11 20:14:00,47.8,36.6,30.05,NW,323,4.0,10.0,65,0.00,,,0.00,0,Wunderground v.1.15,2013-11-12 01:14:00,
2013-11-11 20:19:00,47.8,36.6,30.05,NW,311,5.0,9.0,65,0.00,,,0.00,0,Wunderground v.1.15,2013-11-12 01:19:00,
2013-11-11 20:24:00,47.8,37.0,30.05,WNW,296,3.0,11.0,66,0.00,,,0.00,0,Wunderground v.1.15,2013-11-12 01:24:00,
2013-11-11 20:30:00,48.0,36.8,30.04,NNW,334,9.0,9.0,65,0.00,,,0.00,0,Wunderground v.1.15,2013-11-12 01:30:00,
2013-11-11 20:35:00,48.2,36.6,30.04,NNW,335,8.0,13.0,64,0.00,,,0.00,0,Wunderground v.1.15,2013-11-12 01:35:00,
2013-11-11 20:40:00,48.3,36.7,30.04,West,275,9.0,12.0,64,0.00,,,0.00,0,Wunderground v.1.15,2013-11-12 01:40:00,
2013-11-11 20:45:00,48.5,36.5,30.04,West,273,12.0,12.0,63,0.00,,,0.00,0,Wunderground v.1.15,2013-11-12 01:45:00,
2013-11-11 20:50:00,48.6,36.6,30.04,NW,313,3.0,13.0,63,0.00,,,0.00,0,Wunderground v.1.15,2013-11-12 01:50:00,
2013-11-11 20:55:00,48.7,36.7,30.04,West,271,10.0,13.0,63,0.00,,,0.00,0,Wunderground v.1.15,2013-11-12 01:55:00,
2013-11-11 21:00:00,48.8,36.4,30.04,NW,315,7.0,7.0,62,0.00,,,0.00,0,Wunderground v.1.15,2013-11-12 02:00:00,
2013-11-11 21:05:00,48.7,36.3,30.04,NW,315,10.0,10.0,62,0.00,,,0.00,0,Wunderground v.1.15,2013-11-12 02:05:00,
2013-11-11 21:10:00,48.8,36.4,30.04,WNW,291,7.0,11.0,62,0.00,,,0.00,0,Wunderground v.1.15,2013-11-12 02:10:00,
2013-11-11 21:15:00,49.0,36.1,30.04,NW,313,9.0,14.0,61,0.00,,,0.00,0,Wunderground v.1.15,2013-11-12 02:15:00,
2013-11-11 21:20:00,49.1,36.2,30.04,West,281,8.0,16.0,61,0.00,,,0.00,0,Wunderground v.1.15,2013-11-12 02:20:00,
2013-11-11 21:25:00,49.0,36.1,30.04,NNW,339,6.0,16.0,61,0.00,,,0.00,0,Wunderground v.1.15,2013-11-12 02:25:00,
2013-11-11 21:30:00,49.0,35.7,30.04,WNW,286,6.0,11.0,60,0.00,,,0.00,0,Wunderground v.1.15,2013-11-12 02:30:00,
2013-11-11 21:35:00,49.0,36.1,30.04,NNW,343,3.0,15.0,61,0.00,,,0.00,0,Wunderground v.1.15,2013-11-12 02:35:00,
2013-11-11 21:40:00,48.9,36.0,30.04,WNW,300,9.0,10.0,61,0.00,,,0.00,0,Wunderground v.1.15,2013-11-12 02:40:00,
2013-11-11 21:45:00,48.9,36.0,30.04,WNW,298,10.0,12.0,61,0.00,,,0.00,0,Wunderground v.1.15,2013-11-12 02:45:00,
2013-11-11 21:50:00,48.9,35.6,30.03,NNW,336,6.0,10.0,60,0.00,,,0.00,0,Wunderground v.1.15,2013-11-12 02:50:00,
2013-11-11 21:55:00,48.8,35.9,30.03,NW,308,4.0,10.0,61,0.00,,,0.00,0,Wunderground v.1.15,2013-11-12 02:55:00,
2013-11-11 22:00:00,48.8,35.5,30.03,WNW,290,7.0,9.0,60,0.00,,,0.00,0,Wunderground v.1.15,2013-11-12 03:00:00,
2013-11-11 22:05:00,48.7,35.8,30.03,NNW,330,4.0,10.0,61,0.00,,,0.00,0,Wunderground v.1.15,2013-11-12 03:05:00,
2013-11-11 22:10:00,48.6,35.3,30.03,NW,304,4.0,8.0,60,0.00,,,0.00,0,Wunderground v.1.15,2013-11-12 03:10:00,
2013-11-11 22:15:00,48.7,35.4,30.04,NNW,333,5.0,13.0,60,0.00,,,0.00,0,Wunderground v.1.15,2013-11-12 03:15:00,
2013-11-11 22:20:00,48.7,35.4,30.03,WNW,288,7.0,7.0,60,0.00,,,0.00,0,Wunderground v.1.15,2013-11-12 03:20:00,
2013-11-11 22:25:00,48.7,35.4,30.03,WNW,295,6.0,9.0,60,0.00,,,0.00,0,Wunderground v.1.15,2013-11-12 03:25:00,
2013-11-11 22:30:00,48.8,35.1,30.03,NW,325,4.0,8.0,59,0.00,,,0.00,0,Wunderground v.1.15,2013-11-12 03:30:00,
2013-11-11 22:35:00,48.9,34.8,30.03,NNW,331,7.0,9.0,58,0.00,,,0.00,0,Wunderground v.1.15,2013-11-12 03:35:00,
2013-11-11 22:40:00,49.0,34.4,30.02,NW,317,4.0,12.0,57,0.00,,,0.00,0,Wunderground v.1.15,2013-11-12 03:40:00,
2013-11-11 22:45:00,49.0,34.4,30.02,NW,320,3.0,12.0,57,0.00,,,0.00,0,Wunderground v.1.15,2013-11-12 03:45:00,
2013-11-11 22:50:00,49.0,34.4,30.02,NNW,343,8.0,12.0,57,0.00,,,0.00,0,Wunderground v.1.15,2013-11-12 03:50:00,
2013-11-11 22:55:00,49.0,34.9,30.02,WNW,293,6.0,12.0,58,0.00,,,0.00,0,Wunderground v.1.15,2013-11-12 03:55:00,
2013-11-11 23:00:00,49.0,34.4,30.02,WNW,294,4.0,12.0,57,0.00,,,0.00,0,Wunderground v.1.15,2013-11-12 04:00:00,
2013-11-11 23:05:00,48.9,34.3,30.02,NW,312,5.0,13.0,57,0.00,,,0.00,0,Wunderground v.1.15,2013-11-12 04:05:00,
2013-11-11 23:11:00,48.9,34.3,30.02,NNW,346,4.0,6.0,57,0.00,,,0.00,0,Wunderground v.1.15,2013-11-12 04:11:00,
2013-11-11 23:16:00,48.8,34.2,30.02,West,275,7.0,9.0,57,0.00,,,0.00,0,Wunderground v.1.15,2013-11-12 04:16:00,
2013-11-11 23:21:00,48.9,34.3,30.02,NW,308,6.0,9.0,57,0.00,,,0.00,0,Wunderground v.1.15,2013-11-12 04:21:00,
2013-11-11 23:26:00,49.0,34.0,30.02,NW,306,8.0,16.0,56,0.00,,,0.00,0,Wunderground v.1.15,2013-11-12 04:26:00,
2013-11-11 23:31:00,48.9,34.3,30.02,NW,315,7.0,9.0,57,0.00,,,0.00,0,Wunderground v.1.15,2013-11-12 04:31:00,
2013-11-11 23:36:00,48.9,34.3,30.02,NNW,329,3.0,10.0,57,0.00,,,0.00,0,Wunderground v.1.15,2013-11-12 04:36:00,
2013-11-11 23:41:00,48.9,34.3,30.02,WNW,283,4.0,8.0,57,0.00,,,0.00,0,Wunderground v.1.15,2013-11-12 04:41:00,
2013-11-11 23:46:00,48.8,33.8,30.02,NW,312,3.0,13.0,56,0.00,,,0.00,0,Wunderground v.1.15,2013-11-12 04:46:00,
2013-11-11 23:51:00,48.8,33.8,30.02,WNW,300,5.0,5.0,56,0.00,,,0.00,0,Wunderground v.1.15,2013-11-12 04:51:00,
2013-11-11 23:56:00,48.8,34.2,30.02,NW,306,0.0,9.0,57,0.00,,,0.00,0,Wunderground v.1.15,2013-11-12 04:56:00,